createdAt,value
2022-10-09T00:00:12.109Z,87
2022-10-09T00:01:15.734Z,86.8
2022-10-09T00:02:19.309Z,86.5
2022-10-09T00:03:22.450Z,86.5
2022-10-09T00:04:25.435Z,86.6
2022-10-09T00:05:28.738Z,87.1
2022-10-09T00:06:32.106Z,87
2022-10-09T00:07:35.300Z,87.2
2022-10-09T00:08:38.092Z,87.4
2022-10-09T00:09:41.890Z,87.6
2022-10-09T00:10:44.768Z,87.3
2022-10-09T00:11:48.194Z,87.8
2022-10-09T00:12:52.212Z,87.7
2022-10-09T00:13:55.344Z,87.5
2022-10-09T00:14:58.835Z,87.2
2022-10-09T00:16:02.103Z,88.1
2022-10-09T00:17:05.981Z,87.3
2022-10-09T00:18:09.170Z,87.1
2022-10-09T00:19:12.542Z,87.5
2022-10-09T00:20:15.089Z,87.3
2022-10-09T00:21:17.880Z,87.2
2022-10-09T00:22:20.874Z,87.2
2022-10-09T00:23:23.761Z,87.6
2022-10-09T00:24:26.267Z,87.4
2022-10-09T00:25:29.132Z,87.1
2022-10-09T00:26:31.929Z,87.2
2022-10-09T00:27:34.657Z,87.1
2022-10-09T00:28:40.430Z,87.2
2022-10-09T00:29:43.737Z,87.1
2022-10-09T00:30:47.115Z,87.3
2022-10-09T00:31:51.077Z,87.4
2022-10-09T00:32:54.253Z,87.2
2022-10-09T00:33:57.326Z,87.3
2022-10-09T00:35:00.036Z,87.2
2022-10-09T00:36:03.468Z,87.2
2022-10-09T00:37:06.553Z,87.2
2022-10-09T00:38:09.168Z,87.1
2022-10-09T00:39:11.953Z,87.2
2022-10-09T00:40:14.828Z,87.1
2022-10-09T00:41:17.902Z,86.9
2022-10-09T00:42:20.697Z,87.3
2022-10-09T00:43:24.122Z,87.2
2022-10-09T00:44:26.994Z,87
2022-10-09T00:45:29.928Z,87.5
2022-10-09T00:46:34.149Z,87.5
2022-10-09T00:47:38.617Z,87.5
2022-10-09T00:48:41.215Z,87.4
2022-10-09T00:49:44.288Z,87.5
2022-10-09T00:50:46.877Z,87.5
2022-10-09T00:51:49.869Z,87.1
2022-10-09T00:52:53.598Z,87.3
2022-10-09T00:53:56.392Z,87.4
2022-10-09T00:54:58.905Z,87.1
2022-10-09T00:56:02.053Z,87.4
2022-10-09T00:57:04.755Z,87.2
2022-10-09T00:58:07.924Z,87
2022-10-09T00:59:10.912Z,87.1
2022-10-09T01:00:13.347Z,86.9
2022-10-09T01:01:16.438Z,86.9
2022-10-09T01:02:20.463Z,86.8
2022-10-09T01:03:24.401Z,86.9
2022-10-09T01:04:27.119Z,87.1
2022-10-09T01:05:30.193Z,87
2022-10-09T01:06:33.424Z,87.1
2022-10-09T01:07:36.828Z,87
2022-10-09T01:08:40.173Z,87
2022-10-09T01:09:42.786Z,87.2
2022-10-09T01:10:46.432Z,87.2
2022-10-09T01:11:49.594Z,87.5
2022-10-09T01:12:53.224Z,87.5
2022-10-09T01:13:56.239Z,87.3
2022-10-09T01:14:58.774Z,87.3
2022-10-09T01:16:02.063Z,87.2
2022-10-09T01:17:05.654Z,87.2
2022-10-09T01:18:08.779Z,87.2
2022-10-09T01:19:12.553Z,86.8
2022-10-09T01:20:15.973Z,87.6
2022-10-09T01:21:19.229Z,87.6
2022-10-09T01:22:22.105Z,88
2022-10-09T01:23:24.700Z,87.8
2022-10-09T01:24:28.051Z,87.4
2022-10-09T01:25:31.118Z,87.4
2022-10-09T01:26:33.835Z,87.7
2022-10-09T01:27:37.004Z,87.5
2022-10-09T01:28:40.195Z,87.3
2022-10-09T01:29:43.616Z,87.2
2022-10-09T01:30:46.834Z,87.1
2022-10-09T01:31:50.164Z,87.3
2022-10-09T01:32:53.227Z,87.6
2022-10-09T01:33:56.057Z,87.4
2022-10-09T01:34:59.532Z,87.6
2022-10-09T01:36:02.601Z,87.8
2022-10-09T01:37:05.477Z,87.7
2022-10-09T01:38:09.112Z,88.5
2022-10-09T01:39:11.995Z,88.2
2022-10-09T01:40:15.270Z,87.9
2022-10-09T01:41:18.231Z,88.2
2022-10-09T01:42:20.944Z,88
2022-10-09T01:43:24.172Z,88
2022-10-09T01:44:27.267Z,88
2022-10-09T01:45:30.621Z,88
2022-10-09T01:46:33.926Z,87.9
2022-10-09T01:47:37.309Z,88.1
2022-10-09T01:48:39.795Z,87.7
2022-10-09T01:49:43.924Z,87.7
2022-10-09T01:50:47.988Z,87.8
2022-10-09T01:51:50.978Z,87.7
2022-10-09T01:52:55.056Z,88
2022-10-09T01:53:58.235Z,88.2
2022-10-09T01:55:01.404Z,88
2022-10-09T01:56:03.997Z,87.7
2022-10-09T01:57:07.499Z,87.8
2022-10-09T01:58:10.765Z,87.7
2022-10-09T01:59:17.310Z,87.6
2022-10-09T02:00:20.099Z,87.7
2022-10-09T02:01:22.935Z,87.8
2022-10-09T02:02:26.434Z,87.6
2022-10-09T02:03:29.732Z,87.9
2022-10-09T02:04:33.474Z,88
2022-10-09T02:05:36.757Z,87.7
2022-10-09T02:06:40.245Z,87.6
2022-10-09T02:07:43.579Z,87.7
2022-10-09T02:08:46.569Z,87.8
2022-10-09T02:09:49.897Z,88
2022-10-09T02:10:52.902Z,87.9
2022-10-09T02:11:55.447Z,87.9
2022-10-09T02:12:58.517Z,88
2022-10-09T02:14:01.751Z,88
2022-10-09T02:15:04.467Z,88
2022-10-09T02:16:06.760Z,87.8
2022-10-09T02:17:09.609Z,87.7
2022-10-09T02:18:13.030Z,87.8
2022-10-09T02:19:16.115Z,87.8
2022-10-09T02:20:18.887Z,87.7
2022-10-09T02:21:22.307Z,87.8
2022-10-09T02:22:26.346Z,87.9
2022-10-09T02:23:29.061Z,88.1
2022-10-09T02:24:31.308Z,88.2
2022-10-09T02:25:34.091Z,88.2
2022-10-09T02:26:36.685Z,88.3
2022-10-09T02:27:40.395Z,87.9
2022-10-09T02:28:47.637Z,88
2022-10-09T02:29:50.932Z,87.7
2022-10-09T02:30:54.051Z,87.9
2022-10-09T02:31:57.395Z,88.5
2022-10-09T02:33:00.814Z,88.1
2022-10-09T02:34:03.529Z,88.2
2022-10-09T02:35:06.326Z,88
2022-10-09T02:36:09.820Z,87.7
2022-10-09T02:37:13.137Z,87.9
2022-10-09T02:38:16.608Z,87.8
2022-10-09T02:39:19.831Z,87.7
2022-10-09T02:40:22.619Z,87.7
2022-10-09T02:41:24.947Z,87.8
2022-10-09T02:42:28.321Z,87.7
2022-10-09T02:43:31.197Z,87.8
2022-10-09T02:44:33.913Z,87.9
2022-10-09T02:45:37.059Z,87.9
2022-10-09T02:46:40.899Z,87.7
2022-10-09T02:47:44.395Z,88
2022-10-09T02:48:47.544Z,87.9
2022-10-09T02:49:50.908Z,87.8
2022-10-09T02:50:54.335Z,87.7
2022-10-09T02:51:57.179Z,87.8
2022-10-09T02:53:00.298Z,87.8
2022-10-09T02:54:04.129Z,87.9
2022-10-09T02:55:07.273Z,87.8
2022-10-09T02:56:10.455Z,87.8
2022-10-09T02:57:13.913Z,88
2022-10-09T02:58:16.984Z,88
2022-10-09T02:59:20.312Z,88
2022-10-09T03:00:23.565Z,87.8
2022-10-09T03:01:27.329Z,87.8
2022-10-09T03:02:30.819Z,87.8
2022-10-09T03:03:33.959Z,87.7
2022-10-09T03:04:37.325Z,87.6
2022-10-09T03:05:39.838Z,87.4
2022-10-09T03:06:43.252Z,87.8
2022-10-09T03:07:46.362Z,87.9
2022-10-09T03:08:49.470Z,87.8
2022-10-09T03:09:53.521Z,87.7
2022-10-09T03:10:56.694Z,87.6
2022-10-09T03:11:59.217Z,87.7
2022-10-09T03:13:02.373Z,88.1
2022-10-09T03:14:04.604Z,87.8
2022-10-09T03:15:07.361Z,87.8
2022-10-09T03:16:10.739Z,87.8
2022-10-09T03:17:13.588Z,87.9
2022-10-09T03:18:16.199Z,88
2022-10-09T03:19:19.446Z,88.1
2022-10-09T03:20:22.889Z,88.2
2022-10-09T03:21:26.115Z,88.1
2022-10-09T03:22:29.833Z,88.1
2022-10-09T03:23:32.681Z,87.9
2022-10-09T03:24:35.443Z,88
2022-10-09T03:25:39.259Z,88
2022-10-09T03:26:42.127Z,88
2022-10-09T03:27:45.480Z,88.4
2022-10-09T03:28:49.076Z,88.2
2022-10-09T03:29:51.798Z,88.1
2022-10-09T03:30:54.871Z,88
2022-10-09T03:31:59.153Z,88.5
2022-10-09T03:33:02.092Z,88.2
2022-10-09T03:34:05.891Z,88.3
2022-10-09T03:35:09.160Z,88.3
2022-10-09T03:36:11.882Z,88.5
2022-10-09T03:37:15.341Z,88.3
2022-10-09T03:38:19.081Z,88.6
2022-10-09T03:39:22.241Z,88.4
2022-10-09T03:40:25.413Z,88.2
2022-10-09T03:41:29.293Z,88.6
2022-10-09T03:42:32.006Z,88.5
2022-10-09T03:43:34.714Z,88.7
2022-10-09T03:44:37.977Z,88.6
2022-10-09T03:45:40.314Z,88.4
2022-10-09T03:46:43.775Z,88.2
2022-10-09T03:47:46.414Z,88.3
2022-10-09T03:48:49.206Z,88.3
2022-10-09T03:49:51.797Z,88.4
2022-10-09T03:50:54.137Z,88.2
2022-10-09T03:51:57.543Z,88.4
2022-10-09T03:53:00.615Z,88.3
2022-10-09T03:54:04.127Z,88.2
2022-10-09T03:55:06.890Z,88.3
2022-10-09T03:56:10.370Z,88.1
2022-10-09T03:57:13.327Z,88.1
2022-10-09T03:58:15.314Z,88.3
2022-10-09T03:59:18.772Z,88.1
2022-10-09T04:00:22.394Z,88
2022-10-09T04:01:25.642Z,88
2022-10-09T04:02:28.851Z,88.1
2022-10-09T04:03:31.655Z,88
2022-10-09T04:04:34.475Z,88.2
2022-10-09T04:05:37.272Z,88.2
2022-10-09T04:06:40.714Z,88.2
2022-10-09T04:07:43.601Z,88
2022-10-09T04:08:46.385Z,88
2022-10-09T04:09:49.537Z,88
2022-10-09T04:10:52.604Z,88
2022-10-09T04:11:56.297Z,87.8
2022-10-09T04:12:59.572Z,87.8
2022-10-09T04:14:02.654Z,87.8
2022-10-09T04:15:05.535Z,87.7
2022-10-09T04:16:09.028Z,87.5
2022-10-09T04:17:11.735Z,87.6
2022-10-09T04:18:14.957Z,87.5
2022-10-09T04:19:18.820Z,87.3
2022-10-09T04:20:21.489Z,87.6
2022-10-09T04:21:24.633Z,87.7
2022-10-09T04:22:27.636Z,87.8
2022-10-09T04:23:30.584Z,87.6
2022-10-09T04:24:33.582Z,87.8
2022-10-09T04:25:36.191Z,87.7
2022-10-09T04:26:39.299Z,88
2022-10-09T04:27:42.733Z,87.8
2022-10-09T04:28:46.812Z,87.8
2022-10-09T04:29:49.869Z,87.6
2022-10-09T04:30:53.100Z,87.4
2022-10-09T04:31:56.756Z,87.4
2022-10-09T04:32:59.759Z,87.4
2022-10-09T04:34:02.821Z,87.5
2022-10-09T04:35:04.712Z,87.3
2022-10-09T04:36:08.449Z,87.3
2022-10-09T04:37:11.889Z,87.5
2022-10-09T04:38:15.130Z,87.3
2022-10-09T04:39:17.837Z,87.4
2022-10-09T04:40:20.921Z,87.5
2022-10-09T04:41:23.249Z,87.3
2022-10-09T04:42:26.238Z,87.2
2022-10-09T04:43:29.635Z,87.3
2022-10-09T04:44:33.390Z,87.3
2022-10-09T04:45:36.908Z,87.4
2022-10-09T04:46:40.292Z,87.3
2022-10-09T04:47:43.432Z,87.3
2022-10-09T04:48:46.599Z,87.4
2022-10-09T04:49:49.668Z,87.4
2022-10-09T04:50:53.316Z,87.5
2022-10-09T04:51:56.766Z,87.5
2022-10-09T04:52:59.201Z,87.5
2022-10-09T04:54:02.126Z,87.4
2022-10-09T04:55:05.568Z,87.4
2022-10-09T04:56:08.086Z,87.3
2022-10-09T04:57:10.589Z,87.4
2022-10-09T04:58:13.184Z,87.3
2022-10-09T04:59:16.506Z,87.4
2022-10-09T05:00:19.712Z,87.5
2022-10-09T05:01:23.753Z,87.3
2022-10-09T05:02:27.254Z,87.3
2022-10-09T05:03:30.810Z,87.4
2022-10-09T05:04:34.253Z,87.3
2022-10-09T05:05:37.774Z,87.4
2022-10-09T05:06:41.116Z,87.6
2022-10-09T05:07:43.997Z,87.9
2022-10-09T05:08:46.792Z,88.1
2022-10-09T05:09:49.584Z,88.1
2022-10-09T05:10:52.263Z,88
2022-10-09T05:11:55.332Z,88.2
2022-10-09T05:12:58.040Z,88.1
2022-10-09T05:14:01.268Z,87.9
2022-10-09T05:15:04.974Z,87.8
2022-10-09T05:16:09.110Z,87.8
2022-10-09T05:17:23.774Z,87.8
2022-10-09T05:18:25.899Z,87.8
2022-10-09T05:19:29.341Z,88
2022-10-09T05:20:32.152Z,87.8
2022-10-09T05:21:35.656Z,87.8
2022-10-09T05:22:39.022Z,88.2
2022-10-09T05:23:41.610Z,88
2022-10-09T05:24:45.056Z,87.9
2022-10-09T05:25:48.477Z,87.8
2022-10-09T05:26:51.836Z,87.5
2022-10-09T05:27:54.548Z,87.6
2022-10-09T05:28:57.145Z,87.5
2022-10-09T05:30:00.269Z,87.4
2022-10-09T05:31:04.136Z,87.9
2022-10-09T05:32:08.118Z,87.7
2022-10-09T05:33:11.735Z,87.6
2022-10-09T05:34:14.953Z,87.5
2022-10-09T05:35:18.131Z,87.8
2022-10-09T05:36:20.167Z,87.8
2022-10-09T05:37:23.090Z,87.8
2022-10-09T05:38:26.046Z,88
2022-10-09T05:39:28.760Z,88.1
2022-10-09T05:40:30.760Z,88.2
2022-10-09T05:41:33.004Z,88.2
2022-10-09T05:42:36.175Z,88.5
2022-10-09T05:43:39.970Z,88
2022-10-09T05:44:42.546Z,87.9
2022-10-09T05:45:45.366Z,87.8
2022-10-09T05:46:48.725Z,87.6
2022-10-09T05:47:52.883Z,87.6
2022-10-09T05:48:55.711Z,87.7
2022-10-09T05:49:59.046Z,87.7
2022-10-09T05:51:02.304Z,87.7
2022-10-09T05:52:05.447Z,87.6
2022-10-09T05:53:07.896Z,87.5
2022-10-09T05:54:10.974Z,87.8
2022-10-09T05:55:13.558Z,87.7
2022-10-09T05:56:16.732Z,87.7
2022-10-09T05:57:19.257Z,87.7
2022-10-09T05:58:21.864Z,87.8
2022-10-09T05:59:24.295Z,88.1
2022-10-09T06:00:27.281Z,87.9
2022-10-09T06:01:31.096Z,87.9
2022-10-09T06:02:34.780Z,88
2022-10-09T06:03:38.744Z,87.9
2022-10-09T06:04:42.093Z,88.1
2022-10-09T06:05:44.959Z,88
2022-10-09T06:06:47.533Z,87.9
2022-10-09T06:07:50.396Z,88
2022-10-09T06:08:52.917Z,87.8
2022-10-09T06:09:55.351Z,87.6
2022-10-09T06:10:58.496Z,87.5
2022-10-09T06:12:01.015Z,87.4
2022-10-09T06:13:03.721Z,87.3
2022-10-09T06:14:06.147Z,87.5
2022-10-09T06:15:09.596Z,87.4
2022-10-09T06:16:12.648Z,87.4
2022-10-09T06:17:16.383Z,87.4
2022-10-09T06:18:19.672Z,87.4
2022-10-09T06:19:23.712Z,87.4
2022-10-09T06:20:26.769Z,87.2
2022-10-09T06:21:29.296Z,87.3
2022-10-09T06:22:32.095Z,87.3
2022-10-09T06:23:35.673Z,87.4
2022-10-09T06:24:38.497Z,87.3
2022-10-09T06:25:42.013Z,87.6
2022-10-09T06:26:44.893Z,87.5
2022-10-09T06:27:48.286Z,87.8
2022-10-09T06:28:50.815Z,87.4
2022-10-09T06:29:53.921Z,87.5
2022-10-09T06:30:56.611Z,87.4
2022-10-09T06:31:59.916Z,87.2
2022-10-09T06:33:02.753Z,86.8
2022-10-09T06:34:05.975Z,86.6
2022-10-09T06:35:10.009Z,86.3
2022-10-09T06:36:13.525Z,86.8
2022-10-09T06:37:16.955Z,86.6
2022-10-09T06:38:19.554Z,86.6
2022-10-09T06:39:22.703Z,86.4
2022-10-09T06:40:26.476Z,86.1
2022-10-09T06:41:28.901Z,86
2022-10-09T06:42:31.968Z,86.1
2022-10-09T06:43:33.654Z,86.4
2022-10-09T06:44:36.276Z,86.8
2022-10-09T06:45:39.345Z,86.7
2022-10-09T06:46:42.945Z,86.6
2022-10-09T06:47:46.018Z,86.4
2022-10-09T06:48:49.545Z,86.3
2022-10-09T06:49:52.878Z,86.4
2022-10-09T06:50:56.965Z,86.3
2022-10-09T06:51:59.780Z,86.4
2022-10-09T06:53:02.865Z,86.5
2022-10-09T06:54:05.861Z,86.7
2022-10-09T06:55:08.691Z,86.7
2022-10-09T06:56:11.868Z,86.7
2022-10-09T06:57:15.520Z,86.6
2022-10-09T06:58:18.770Z,86.4
2022-10-09T06:59:22.251Z,86.1
2022-10-09T07:00:25.409Z,86.1
2022-10-09T07:01:28.954Z,86.1
2022-10-09T07:02:32.411Z,86.1
2022-10-09T07:03:35.648Z,86.5
2022-10-09T07:04:38.770Z,86.3
2022-10-09T07:05:41.963Z,86.4
2022-10-09T07:06:46.007Z,86.4
2022-10-09T07:07:49.363Z,86.7
2022-10-09T07:08:53.078Z,86.7
2022-10-09T07:09:56.724Z,87
2022-10-09T07:10:59.319Z,86.5
2022-10-09T07:12:02.123Z,86.8
2022-10-09T07:13:04.360Z,86.5
2022-10-09T07:14:07.778Z,86.7
2022-10-09T07:15:10.582Z,86.4
2022-10-09T07:16:14.321Z,86.8
2022-10-09T07:17:17.359Z,86.9
2022-10-09T07:18:20.868Z,86.6
2022-10-09T07:19:23.945Z,86.3
2022-10-09T07:20:27.356Z,86.3
2022-10-09T07:21:31.145Z,86.6
2022-10-09T07:22:34.922Z,86.7
2022-10-09T07:23:38.130Z,86.2
2022-10-09T07:24:40.649Z,86.3
2022-10-09T07:25:43.996Z,86.2
2022-10-09T07:26:47.348Z,86.3
2022-10-09T07:27:50.339Z,86.4
2022-10-09T07:28:53.138Z,86.6
2022-10-09T07:29:56.489Z,86.4
2022-10-09T07:30:59.962Z,87.1
2022-10-09T07:32:11.657Z,87
2022-10-09T07:33:14.562Z,86.9
2022-10-09T07:34:17.625Z,86.8
2022-10-09T07:35:19.784Z,86.3
2022-10-09T07:36:22.649Z,86.1
2022-10-09T07:37:26.316Z,86.3
2022-10-09T07:38:29.870Z,86.4
2022-10-09T07:39:33.005Z,86.2
2022-10-09T07:40:35.343Z,85.6
2022-10-09T07:41:38.138Z,85.5
2022-10-09T07:42:40.938Z,85.7
2022-10-09T07:43:44.452Z,85.8
2022-10-09T07:44:47.885Z,86.3
2022-10-09T07:45:51.525Z,85.6
2022-10-09T07:46:55.144Z,85.5
2022-10-09T07:47:58.650Z,85.5
2022-10-09T07:49:01.092Z,85.6
2022-10-09T07:50:04.156Z,85.7
2022-10-09T07:51:07.127Z,85.6
2022-10-09T07:52:10.442Z,85.6
2022-10-09T07:53:13.956Z,84.9
2022-10-09T07:54:17.721Z,84.9
2022-10-09T07:55:20.302Z,84.3
2022-10-09T07:56:23.401Z,84.3
2022-10-09T07:57:26.263Z,84.1
2022-10-09T07:58:29.432Z,84.2
2022-10-09T07:59:32.615Z,84.1
2022-10-09T08:00:35.764Z,83.7
2022-10-09T08:01:39.305Z,83.1
2022-10-09T08:02:42.837Z,83
2022-10-09T08:03:46.216Z,83.2
2022-10-09T08:04:49.019Z,82.9
2022-10-09T08:05:51.326Z,82.7
2022-10-09T08:06:54.684Z,82.4
2022-10-09T08:07:57.524Z,82.8
2022-10-09T08:09:01.228Z,82.6
2022-10-09T08:10:05.342Z,82.4
2022-10-09T08:11:07.786Z,82.4
2022-10-09T08:12:10.856Z,82.1
2022-10-09T08:13:13.444Z,81.8
2022-10-09T08:14:20.749Z,81.8
2022-10-09T08:15:24.183Z,82
2022-10-09T08:16:27.775Z,81.5
2022-10-09T08:17:30.942Z,81.4
2022-10-09T08:18:33.807Z,81.3
2022-10-09T08:19:37.395Z,80.9
2022-10-09T08:20:41.083Z,81.9
2022-10-09T08:21:44.421Z,81.5
2022-10-09T08:22:49.139Z,81.2
2022-10-09T08:23:53.909Z,81.1
2022-10-09T08:24:56.764Z,80.3
2022-10-09T08:26:00.260Z,79.8
2022-10-09T08:27:03.329Z,79.5
2022-10-09T08:28:06.914Z,79.1
2022-10-09T08:29:09.527Z,78.9
2022-10-09T08:30:12.494Z,78.3
2022-10-09T08:31:15.618Z,78.4
2022-10-09T08:32:18.816Z,78.4
2022-10-09T08:33:21.060Z,79
2022-10-09T08:34:23.387Z,78.5
2022-10-09T08:35:26.881Z,77.8
2022-10-09T08:36:37.386Z,77.1
2022-10-09T08:37:40.182Z,77.5
2022-10-09T08:38:50.021Z,77.2
2022-10-09T08:39:52.864Z,78.3
2022-10-09T08:40:59.773Z,77.6
2022-10-09T08:42:03.329Z,77.3
2022-10-09T08:43:06.679Z,77.1
2022-10-09T08:44:10.025Z,76.4
2022-10-09T08:45:13.197Z,76.4
2022-10-09T08:46:22.113Z,76.9
2022-10-09T08:47:25.362Z,75.9
2022-10-09T08:48:28.456Z,76.1
2022-10-09T08:49:31.528Z,74.8
2022-10-09T08:50:34.947Z,75
2022-10-09T08:51:38.023Z,75
2022-10-09T08:52:41.368Z,75.1
2022-10-09T08:53:44.437Z,74.7
2022-10-09T08:54:47.784Z,74
2022-10-09T08:55:50.402Z,74.3
2022-10-09T08:56:53.450Z,74.4
2022-10-09T08:57:56.370Z,73.3
2022-10-09T08:58:59.160Z,72.4
2022-10-09T09:00:02.827Z,71.8
2022-10-09T09:01:05.694Z,72.4
2022-10-09T09:02:08.842Z,72.5
2022-10-09T09:03:12.566Z,71.5
2022-10-09T09:04:15.794Z,71.8
2022-10-09T09:05:18.959Z,70.9
2022-10-09T09:06:22.033Z,71
2022-10-09T09:07:25.022Z,70.3
2022-10-09T09:08:27.561Z,70.6
2022-10-09T09:09:31.198Z,70
2022-10-09T09:10:33.993Z,70.1
2022-10-09T09:11:36.569Z,70.1
2022-10-09T09:12:40.266Z,68.9
2022-10-09T09:13:43.838Z,68
2022-10-09T09:14:47.264Z,67.4
2022-10-09T09:15:50.488Z,66.7
2022-10-09T09:16:53.924Z,67.4
2022-10-09T09:17:57.261Z,67.3
2022-10-09T09:19:00.122Z,67.4
2022-10-09T09:20:03.249Z,66
2022-10-09T09:21:06.333Z,66
2022-10-09T09:22:09.469Z,65.2
2022-10-09T09:23:11.717Z,65.7
2022-10-09T09:24:14.425Z,66.6
2022-10-09T09:25:17.318Z,66.3
2022-10-09T09:26:21.054Z,65
2022-10-09T09:27:24.594Z,65.3
2022-10-09T09:28:28.818Z,65
2022-10-09T09:29:32.854Z,64.6
2022-10-09T09:30:35.741Z,65
2022-10-09T09:31:38.815Z,64.3
2022-10-09T09:32:42.377Z,64.4
2022-10-09T09:33:46.173Z,63.3
2022-10-09T09:34:49.455Z,62.6
2022-10-09T09:35:52.327Z,63.1
2022-10-09T09:36:55.423Z,63.8
2022-10-09T09:37:58.875Z,62.9
2022-10-09T09:40:38.220Z,62.4
2022-10-09T09:41:49.752Z,63.2
2022-10-09T09:42:53.370Z,61.8
2022-10-09T09:43:56.605Z,61.5
2022-10-09T09:45:00.374Z,60.8
2022-10-09T09:46:03.857Z,60.6
2022-10-09T09:47:07.776Z,59.8
2022-10-09T09:48:10.647Z,59.9
2022-10-09T09:49:13.166Z,59.9
2022-10-09T09:51:27.220Z,59.4
2022-10-09T09:52:32.825Z,58.8
2022-10-09T09:53:35.609Z,58.2
2022-10-09T09:54:38.680Z,57.7
2022-10-09T09:55:41.550Z,58.2
2022-10-09T09:57:22.481Z,58
2022-10-09T09:58:26.103Z,57.8
2022-10-09T09:59:29.143Z,57
2022-10-09T10:00:33.029Z,57.5
2022-10-09T10:01:36.119Z,56
2022-10-09T10:02:39.674Z,56.3
2022-10-09T10:03:42.825Z,55.9
2022-10-09T10:04:45.615Z,55.4
2022-10-09T10:05:49.072Z,56.7
2022-10-09T10:06:51.983Z,55.9
2022-10-09T10:07:54.427Z,54.7
2022-10-09T10:08:57.501Z,55
2022-10-09T10:10:01.222Z,54.7
2022-10-09T10:11:04.290Z,54.3
2022-10-09T10:12:06.661Z,54.7
2022-10-09T10:13:10.048Z,55.5
2022-10-09T10:14:13.099Z,55.4
2022-10-09T10:15:16.226Z,55.7
2022-10-09T10:16:20.569Z,56.9
2022-10-09T10:17:24.001Z,55.8
2022-10-09T10:18:27.619Z,55.3
2022-10-09T10:19:30.503Z,54.8
2022-10-09T10:20:33.594Z,54.8
2022-10-09T10:21:36.754Z,53.5
2022-10-09T10:22:40.133Z,53.7
2022-10-09T10:23:43.834Z,54.5
2022-10-09T10:24:46.542Z,54.4
2022-10-09T10:25:48.586Z,53.6
2022-10-09T10:26:51.574Z,52.9
2022-10-09T10:27:54.305Z,53
2022-10-09T10:28:56.821Z,53.5
2022-10-09T10:29:59.824Z,55.6
2022-10-09T10:31:03.584Z,53.6
2022-10-09T10:32:06.937Z,52.8
2022-10-09T10:33:09.785Z,51.9
2022-10-09T10:34:12.313Z,51.8
2022-10-09T10:35:15.300Z,52
2022-10-09T10:36:18.089Z,50.2
2022-10-09T10:37:21.278Z,51.4
2022-10-09T10:38:23.510Z,51.4
2022-10-09T10:39:26.656Z,50.8
2022-10-09T10:40:30.471Z,50
2022-10-09T10:41:34.124Z,50.5
2022-10-09T10:42:36.379Z,49.4
2022-10-09T10:43:39.467Z,48.7
2022-10-09T10:44:42.531Z,49.3
2022-10-09T10:45:45.301Z,51.1
2022-10-09T10:46:49.163Z,52.8
2022-10-09T10:47:54.250Z,52.5
2022-10-09T10:48:57.672Z,50.2
2022-10-09T10:50:00.791Z,50.7
2022-10-09T10:51:04.239Z,49.3
2022-10-09T10:52:07.136Z,49.5
2022-10-09T10:53:10.899Z,48.8
2022-10-09T10:54:13.661Z,48
2022-10-09T10:55:17.013Z,48.3
2022-10-09T10:56:20.391Z,48.5
2022-10-09T10:57:23.103Z,48.6
2022-10-09T10:58:26.122Z,48.1
2022-10-09T10:59:29.188Z,48.1
2022-10-09T11:00:31.987Z,48.8
2022-10-09T11:01:35.303Z,47.5
2022-10-09T11:02:43.550Z,45.2
2022-10-09T11:03:48.113Z,45.5
2022-10-09T11:04:51.534Z,44.3
2022-10-09T11:05:54.418Z,45.5
2022-10-09T11:06:57.487Z,48.7
2022-10-09T11:08:01.299Z,47.8
2022-10-09T11:09:04.651Z,46.7
2022-10-09T11:10:07.794Z,44.5
2022-10-09T11:11:10.953Z,44.8
2022-10-09T11:12:49.167Z,42.7
2022-10-09T11:13:52.719Z,43.9
2022-10-09T11:14:55.436Z,43.2
2022-10-09T11:15:59.073Z,42.4
2022-10-09T11:17:02.373Z,44.1
2022-10-09T11:18:05.824Z,44.4
2022-10-09T11:19:09.351Z,45
2022-10-09T11:20:13.006Z,43.8
2022-10-09T11:21:15.872Z,43.9
2022-10-09T11:22:19.554Z,44.1
2022-10-09T11:23:22.263Z,43.5
2022-10-09T11:24:24.586Z,43.6
2022-10-09T11:25:27.541Z,44.6
2022-10-09T11:26:30.366Z,45.4
2022-10-09T11:27:32.808Z,43.3
2022-10-09T11:28:35.742Z,43.8
2022-10-09T11:29:39.137Z,44.2
2022-10-09T11:30:42.276Z,45.2
2022-10-09T11:31:45.976Z,45.1
2022-10-09T11:32:48.933Z,47
2022-10-09T11:33:52.435Z,48.2
2022-10-09T11:34:56.191Z,49.8
2022-10-09T11:35:59.089Z,48.2
2022-10-09T11:37:01.979Z,47.9
2022-10-09T11:38:07.071Z,45
2022-10-09T11:39:13.120Z,43.1
2022-10-09T11:40:16.722Z,43
2022-10-09T11:41:20.188Z,44.6
2022-10-09T11:42:23.640Z,44.7
2022-10-09T11:43:26.076Z,43.4
2022-10-09T11:44:28.889Z,45.2
2022-10-09T11:45:31.967Z,44.5
2022-10-09T11:46:35.527Z,43.5
2022-10-09T11:47:38.667Z,44.3
2022-10-09T11:48:41.486Z,43.5
2022-10-09T11:49:45.094Z,42.7
2022-10-09T11:50:48.585Z,42.3
2022-10-09T11:51:51.459Z,42.7
2022-10-09T11:52:54.893Z,43.5
2022-10-09T11:53:58.247Z,42.8
2022-10-09T11:55:01.443Z,42.2
2022-10-09T11:56:04.525Z,42.1
2022-10-09T11:57:16.079Z,41.9
2022-10-09T11:58:19.153Z,46.4
2022-10-09T11:59:22.508Z,47.6
2022-10-09T12:00:25.679Z,47.6
2022-10-09T12:01:28.549Z,47.2
2022-10-09T12:02:32.109Z,49
2022-10-09T12:03:34.623Z,48
2022-10-09T12:04:56.983Z,47.1
2022-10-09T12:06:00.499Z,45
2022-10-09T12:07:03.595Z,45.3
2022-10-09T12:08:06.722Z,44.2
2022-10-09T12:09:09.975Z,44
2022-10-09T12:10:13.782Z,45.7
2022-10-09T12:11:16.387Z,47
2022-10-09T12:12:19.538Z,47.2
2022-10-09T12:13:22.332Z,48
2022-10-09T12:14:25.512Z,47.3
2022-10-09T12:15:28.227Z,46.6
2022-10-09T12:16:31.670Z,47.3
2022-10-09T12:17:34.679Z,47.8
2022-10-09T12:18:37.570Z,45.5
2022-10-09T12:19:41.001Z,43.7
2022-10-09T12:20:44.527Z,45.8
2022-10-09T12:21:48.566Z,47.6
2022-10-09T12:23:29.054Z,45
2022-10-09T12:24:34.440Z,46.7
2022-10-09T12:25:37.941Z,49.3
2022-10-09T12:26:41.096Z,49.3
2022-10-09T12:27:44.264Z,46.8
2022-10-09T12:28:47.918Z,48.2
2022-10-09T12:29:50.985Z,47.2
2022-10-09T12:30:54.586Z,46.8
2022-10-09T12:31:57.554Z,47.5
2022-10-09T12:33:00.623Z,48.2
2022-10-09T12:34:03.980Z,47.2
2022-10-09T12:35:06.706Z,46.7
2022-10-09T12:36:09.509Z,47.6
2022-10-09T12:37:13.570Z,47.3
2022-10-09T12:38:17.050Z,47.6
2022-10-09T12:39:20.706Z,47.3
2022-10-09T12:40:24.239Z,46.7
2022-10-09T12:41:27.665Z,45.8
2022-10-09T12:43:33.962Z,47
2022-10-09T12:44:37.018Z,47.1
2022-10-09T12:45:40.620Z,47.8
2022-10-09T12:46:43.595Z,48.4
2022-10-09T12:47:46.391Z,48.3
2022-10-09T12:48:49.538Z,46.8
2022-10-09T12:49:52.708Z,48.5
2022-10-09T12:50:56.403Z,48.9
2022-10-09T12:51:59.751Z,48.3
2022-10-09T12:53:03.543Z,45.9
2022-10-09T12:54:06.253Z,45.9
2022-10-09T12:55:09.052Z,46.2
2022-10-09T12:56:12.330Z,45.9
2022-10-09T12:57:14.890Z,47.2
2022-10-09T12:58:17.614Z,47.7
2022-10-09T12:59:20.310Z,47.3
2022-10-09T13:00:23.664Z,47.7
2022-10-09T13:01:27.133Z,47.3
2022-10-09T13:02:31.188Z,46.7
2022-10-09T13:03:35.037Z,47.1
2022-10-09T13:04:38.170Z,47
2022-10-09T13:05:40.608Z,47.1
2022-10-09T13:06:43.802Z,46.3
2022-10-09T13:07:50.035Z,46.4
2022-10-09T13:08:53.802Z,47.3
2022-10-09T13:09:57.254Z,46.4
2022-10-09T13:11:00.418Z,46.5
2022-10-09T13:12:03.215Z,46.7
2022-10-09T13:13:05.726Z,46.8
2022-10-09T13:14:08.613Z,46.8
2022-10-09T13:15:15.903Z,47.4
2022-10-09T13:16:22.053Z,48.1
2022-10-09T13:17:24.809Z,47.9
2022-10-09T13:18:27.837Z,49.4
2022-10-09T13:19:30.925Z,50.5
2022-10-09T13:20:33.523Z,49.2
2022-10-09T13:21:36.901Z,50.1
2022-10-09T13:22:39.917Z,50.7
2022-10-09T13:23:43.152Z,46.5
2022-10-09T13:24:46.992Z,47.6
2022-10-09T13:25:50.698Z,48.1
2022-10-09T13:26:53.686Z,49.2
2022-10-09T13:27:56.843Z,49.8
2022-10-09T13:28:59.923Z,49.8
2022-10-09T13:30:03.411Z,50.2
2022-10-09T13:31:07.322Z,49.4
2022-10-09T13:32:10.528Z,50.4
2022-10-09T13:33:13.603Z,49.7
2022-10-09T13:34:16.321Z,50.3
2022-10-09T13:35:19.420Z,49.4
2022-10-09T13:36:22.769Z,49.5
2022-10-09T13:37:25.466Z,49.4
2022-10-09T13:38:35.817Z,50.4
2022-10-09T13:39:38.796Z,50.5
2022-10-09T13:40:42.307Z,48.8
2022-10-09T13:41:45.459Z,48.7
2022-10-09T13:42:48.311Z,48
2022-10-09T13:43:51.646Z,48.3
2022-10-09T13:44:54.622Z,48.9
2022-10-09T13:45:57.691Z,49.5
2022-10-09T13:47:00.634Z,49.6
2022-10-09T13:48:03.621Z,49.2
2022-10-09T13:49:07.139Z,48.8
2022-10-09T13:50:10.532Z,48.7
2022-10-09T13:51:13.594Z,49.1
2022-10-09T13:52:16.823Z,49.1
2022-10-09T13:53:19.643Z,49.7
2022-10-09T13:54:22.804Z,50.5
2022-10-09T13:55:26.224Z,51.4
2022-10-09T13:56:31.456Z,51.6
2022-10-09T13:57:35.758Z,50.3
2022-10-09T13:58:39.498Z,49.2
2022-10-09T13:59:42.800Z,48.8
2022-10-09T14:00:45.702Z,48.2
2022-10-09T14:01:48.883Z,48.5
2022-10-09T14:02:51.999Z,48.6
2022-10-09T14:03:54.990Z,48.6
2022-10-09T14:04:58.062Z,47.9
2022-10-09T14:06:00.777Z,48.2
2022-10-09T14:07:03.646Z,49.1
2022-10-09T14:08:06.725Z,48.9
2022-10-09T14:09:09.568Z,48.4
2022-10-09T14:10:12.631Z,47.8
2022-10-09T14:11:15.531Z,48.1
2022-10-09T14:12:19.568Z,48.4
2022-10-09T14:13:23.220Z,48.7
2022-10-09T14:14:26.561Z,48.8